sensor_id;sensor_type;location;lat;lon;timestamp;P1;durP1;ratioP1;P2;durP2;ratioP2
43519;SDS011;46848;51.980;5.918;2023-08-20T00:00:52;13.63;;;4.68;;
43519;SDS011;46848;51.980;5.918;2023-08-20T00:03:18;10.80;;;4.68;;
43519;SDS011;46848;51.980;5.918;2023-08-20T00:05:44;10.38;;;3.97;;
43519;SDS011;46848;51.980;5.918;2023-08-20T00:08:09;9.30;;;4.30;;
43519;SDS011;46848;51.980;5.918;2023-08-20T00:10:35;14.38;;;3.65;;
43519;SDS011;46848;51.980;5.918;2023-08-20T00:13:01;6.53;;;3.35;;
43519;SDS011;46848;51.980;5.918;2023-08-20T00:15:26;9.73;;;3.97;;
43519;SDS011;46848;51.980;5.918;2023-08-20T00:17:53;11.27;;;3.90;;
43519;SDS011;46848;51.980;5.918;2023-08-20T00:20:20;9.45;;;3.38;;
43519;SDS011;46848;51.980;5.918;2023-08-20T00:22:47;11.82;;;3.65;;
43519;SDS011;46848;51.980;5.918;2023-08-20T00:25:13;10.13;;;3.95;;
43519;SDS011;46848;51.980;5.918;2023-08-20T00:27:40;10.13;;;3.55;;
43519;SDS011;46848;51.980;5.918;2023-08-20T00:30:07;7.32;;;3.45;;
43519;SDS011;46848;51.980;5.918;2023-08-20T00:32:33;9.38;;;4.30;;
43519;SDS011;46848;51.980;5.918;2023-08-20T00:34:59;10.68;;;4.43;;
43519;SDS011;46848;51.980;5.918;2023-08-20T00:37:25;8.55;;;4.60;;
43519;SDS011;46848;51.980;5.918;2023-08-20T00:39:51;9.52;;;4.60;;
43519;SDS011;46848;51.980;5.918;2023-08-20T00:42:16;7.65;;;4.53;;
43519;SDS011;46848;51.980;5.918;2023-08-20T00:44:42;8.48;;;3.80;;
43519;SDS011;46848;51.980;5.918;2023-08-20T00:47:11;8.07;;;3.53;;
43519;SDS011;46848;51.980;5.918;2023-08-20T00:49:40;7.93;;;3.30;;
43519;SDS011;46848;51.980;5.918;2023-08-20T00:52:06;5.35;;;2.67;;
43519;SDS011;46848;51.980;5.918;2023-08-20T00:54:34;9.60;;;3.60;;
43519;SDS011;46848;51.980;5.918;2023-08-20T00:57:00;8.30;;;4.20;;
43519;SDS011;46848;51.980;5.918;2023-08-20T00:59:27;11.77;;;5.55;;
43519;SDS011;46848;51.980;5.918;2023-08-20T01:01:54;8.05;;;5.10;;
43519;SDS011;46848;51.980;5.918;2023-08-20T01:04:20;9.45;;;4.25;;
43519;SDS011;46848;51.980;5.918;2023-08-20T01:09:50;8.02;;;3.47;;
43519;SDS011;46848;51.980;5.918;2023-08-20T01:12:22;6.75;;;3.08;;
43519;SDS011;46848;51.980;5.918;2023-08-20T01:14:49;7.82;;;2.95;;
43519;SDS011;46848;51.980;5.918;2023-08-20T01:17:14;7.05;;;2.90;;
43519;SDS011;46848;51.980;5.918;2023-08-20T01:19:40;7.43;;;2.90;;
43519;SDS011;46848;51.980;5.918;2023-08-20T01:30:15;7.55;;;3.22;;
43519;SDS011;46848;51.980;5.918;2023-08-20T01:32:41;6.15;;;2.75;;
43519;SDS011;46848;51.980;5.918;2023-08-20T01:35:12;6.20;;;2.72;;
43519;SDS011;46848;51.980;5.918;2023-08-20T01:37:40;6.80;;;2.33;;
43519;SDS011;46848;51.980;5.918;2023-08-20T01:40:06;8.55;;;2.65;;
43519;SDS011;46848;51.980;5.918;2023-08-20T01:42:38;6.47;;;2.60;;
43519;SDS011;46848;51.980;5.918;2023-08-20T01:45:05;7.57;;;2.80;;
43519;SDS011;46848;51.980;5.918;2023-08-20T01:47:32;10.30;;;2.85;;
43519;SDS011;46848;51.980;5.918;2023-08-20T01:49:58;7.40;;;2.55;;
43519;SDS011;46848;51.980;5.918;2023-08-20T01:52:24;5.70;;;2.28;;
43519;SDS011;46848;51.980;5.918;2023-08-20T01:54:50;6.13;;;2.40;;
43519;SDS011;46848;51.980;5.918;2023-08-20T01:57:16;7.70;;;3.83;;
43519;SDS011;46848;51.980;5.918;2023-08-20T01:59:42;8.32;;;3.65;;
43519;SDS011;46848;51.980;5.918;2023-08-20T02:02:08;8.13;;;4.05;;
43519;SDS011;46848;51.980;5.918;2023-08-20T02:04:33;9.82;;;3.20;;
43519;SDS011;46848;51.980;5.918;2023-08-20T02:06:59;5.90;;;3.13;;
43519;SDS011;46848;51.980;5.918;2023-08-20T02:09:25;10.35;;;3.50;;
43519;SDS011;46848;51.980;5.918;2023-08-20T02:11:51;9.73;;;3.10;;
43519;SDS011;46848;51.980;5.918;2023-08-20T02:14:17;7.80;;;3.28;;
43519;SDS011;46848;51.980;5.918;2023-08-20T02:16:43;5.32;;;2.70;;
43519;SDS011;46848;51.980;5.918;2023-08-20T02:19:08;7.38;;;3.00;;
43519;SDS011;46848;51.980;5.918;2023-08-20T02:21:34;7.47;;;3.00;;
43519;SDS011;46848;51.980;5.918;2023-08-20T02:24:00;5.65;;;3.00;;
43519;SDS011;46848;51.980;5.918;2023-08-20T02:26:26;7.68;;;2.95;;
43519;SDS011;46848;51.980;5.918;2023-08-20T02:28:51;11.88;;;3.33;;
43519;SDS011;46848;51.980;5.918;2023-08-20T02:31:17;8.20;;;2.80;;
43519;SDS011;46848;51.980;5.918;2023-08-20T02:33:43;7.75;;;2.80;;
43519;SDS011;46848;51.980;5.918;2023-08-20T02:36:08;6.97;;;3.00;;
43519;SDS011;46848;51.980;5.918;2023-08-20T02:38:34;6.40;;;2.80;;
43519;SDS011;46848;51.980;5.918;2023-08-20T02:41:00;5.55;;;2.88;;
43519;SDS011;46848;51.980;5.918;2023-08-20T02:43:27;6.75;;;2.83;;
43519;SDS011;46848;51.980;5.918;2023-08-20T02:45:53;8.68;;;3.20;;
43519;SDS011;46848;51.980;5.918;2023-08-20T02:48:19;8.18;;;2.90;;
43519;SDS011;46848;51.980;5.918;2023-08-20T02:50:45;7.30;;;2.90;;
43519;SDS011;46848;51.980;5.918;2023-08-20T02:53:10;8.27;;;3.35;;
43519;SDS011;46848;51.980;5.918;2023-08-20T02:55:36;6.57;;;3.20;;
43519;SDS011;46848;51.980;5.918;2023-08-20T02:58:01;10.05;;;3.65;;
43519;SDS011;46848;51.980;5.918;2023-08-20T03:00:29;8.07;;;3.03;;
43519;SDS011;46848;51.980;5.918;2023-08-20T03:02:55;8.00;;;3.30;;
43519;SDS011;46848;51.980;5.918;2023-08-20T03:05:21;8.57;;;3.20;;
43519;SDS011;46848;51.980;5.918;2023-08-20T03:07:47;7.40;;;2.97;;
43519;SDS011;46848;51.980;5.918;2023-08-20T03:10:12;7.50;;;3.67;;
43519;SDS011;46848;51.980;5.918;2023-08-20T03:12:38;8.07;;;3.10;;
43519;SDS011;46848;51.980;5.918;2023-08-20T03:15:04;7.13;;;3.65;;
43519;SDS011;46848;51.980;5.918;2023-08-20T03:17:29;7.45;;;3.35;;
43519;SDS011;46848;51.980;5.918;2023-08-20T03:19:55;8.77;;;3.22;;
43519;SDS011;46848;51.980;5.918;2023-08-20T03:22:23;8.43;;;3.38;;
43519;SDS011;46848;51.980;5.918;2023-08-20T03:24:49;6.15;;;3.20;;
43519;SDS011;46848;51.980;5.918;2023-08-20T03:27:15;6.47;;;2.85;;
43519;SDS011;46848;51.980;5.918;2023-08-20T03:29:41;9.52;;;3.80;;
43519;SDS011;46848;51.980;5.918;2023-08-20T03:32:07;6.63;;;3.55;;
43519;SDS011;46848;51.980;5.918;2023-08-20T03:34:33;7.90;;;3.17;;
43519;SDS011;46848;51.980;5.918;2023-08-20T03:36:58;6.78;;;3.25;;
43519;SDS011;46848;51.980;5.918;2023-08-20T03:39:24;8.20;;;3.30;;
43519;SDS011;46848;51.980;5.918;2023-08-20T03:41:50;6.45;;;3.53;;
43519;SDS011;46848;51.980;5.918;2023-08-20T03:44:16;7.38;;;3.50;;
43519;SDS011;46848;51.980;5.918;2023-08-20T03:46:42;5.68;;;3.28;;
43519;SDS011;46848;51.980;5.918;2023-08-20T03:49:08;7.97;;;3.08;;
43519;SDS011;46848;51.980;5.918;2023-08-20T03:51:33;9.95;;;3.72;;
43519;SDS011;46848;51.980;5.918;2023-08-20T03:53:59;7.20;;;3.17;;
43519;SDS011;46848;51.980;5.918;2023-08-20T03:56:24;7.72;;;3.45;;
43519;SDS011;46848;51.980;5.918;2023-08-20T03:58:50;7.47;;;3.65;;
43519;SDS011;46848;51.980;5.918;2023-08-20T04:01:16;7.65;;;3.25;;
43519;SDS011;46848;51.980;5.918;2023-08-20T04:03:41;6.88;;;3.10;;
43519;SDS011;46848;51.980;5.918;2023-08-20T04:06:07;7.28;;;3.45;;
43519;SDS011;46848;51.980;5.918;2023-08-20T04:08:32;7.50;;;3.78;;
43519;SDS011;46848;51.980;5.918;2023-08-20T04:10:58;7.78;;;3.70;;
43519;SDS011;46848;51.980;5.918;2023-08-20T04:13:23;9.73;;;3.75;;
43519;SDS011;46848;51.980;5.918;2023-08-20T04:15:49;6.53;;;3.42;;
43519;SDS011;46848;51.980;5.918;2023-08-20T04:18:16;8.85;;;3.63;;
43519;SDS011;46848;51.980;5.918;2023-08-20T04:20:41;8.20;;;3.83;;
43519;SDS011;46848;51.980;5.918;2023-08-20T04:23:07;6.28;;;3.72;;
43519;SDS011;46848;51.980;5.918;2023-08-20T04:25:32;9.05;;;4.03;;
43519;SDS011;46848;51.980;5.918;2023-08-20T04:27:59;9.98;;;4.45;;
43519;SDS011;46848;51.980;5.918;2023-08-20T04:30:25;9.00;;;3.38;;
43519;SDS011;46848;51.980;5.918;2023-08-20T04:32:50;5.68;;;2.92;;
43519;SDS011;46848;51.980;5.918;2023-08-20T04:35:16;9.15;;;3.80;;
43519;SDS011;46848;51.980;5.918;2023-08-20T04:37:42;8.50;;;4.35;;
43519;SDS011;46848;51.980;5.918;2023-08-20T04:40:07;7.72;;;3.55;;
43519;SDS011;46848;51.980;5.918;2023-08-20T04:42:33;7.30;;;3.10;;
43519;SDS011;46848;51.980;5.918;2023-08-20T04:44:59;7.50;;;3.17;;
43519;SDS011;46848;51.980;5.918;2023-08-20T04:47:25;7.38;;;3.80;;
43519;SDS011;46848;51.980;5.918;2023-08-20T04:49:50;8.05;;;3.60;;
43519;SDS011;46848;51.980;5.918;2023-08-20T04:52:16;9.20;;;3.78;;
43519;SDS011;46848;51.980;5.918;2023-08-20T04:54:41;8.57;;;3.30;;
43519;SDS011;46848;51.980;5.918;2023-08-20T04:57:07;9.10;;;3.47;;
43519;SDS011;46848;51.980;5.918;2023-08-20T04:59:33;6.90;;;3.17;;
43519;SDS011;46848;51.980;5.918;2023-08-20T05:01:58;8.13;;;3.63;;
43519;SDS011;46848;51.980;5.918;2023-08-20T05:04:24;7.20;;;3.40;;
43519;SDS011;46848;51.980;5.918;2023-08-20T05:06:49;7.43;;;3.05;;
43519;SDS011;46848;51.980;5.918;2023-08-20T05:09:15;7.97;;;3.40;;
43519;SDS011;46848;51.980;5.918;2023-08-20T05:11:41;6.25;;;3.70;;
43519;SDS011;46848;51.980;5.918;2023-08-20T05:14:07;8.38;;;3.50;;
43519;SDS011;46848;51.980;5.918;2023-08-20T05:16:32;6.95;;;3.40;;
43519;SDS011;46848;51.980;5.918;2023-08-20T05:18:58;6.10;;;3.60;;
43519;SDS011;46848;51.980;5.918;2023-08-20T05:21:23;5.47;;;3.10;;
43519;SDS011;46848;51.980;5.918;2023-08-20T05:23:49;6.72;;;3.70;;
43519;SDS011;46848;51.980;5.918;2023-08-20T05:26:15;10.95;;;4.20;;
43519;SDS011;46848;51.980;5.918;2023-08-20T05:28:40;6.85;;;3.53;;
43519;SDS011;46848;51.980;5.918;2023-08-20T05:31:06;5.47;;;3.17;;
43519;SDS011;46848;51.980;5.918;2023-08-20T05:33:32;11.68;;;4.03;;
43519;SDS011;46848;51.980;5.918;2023-08-20T05:35:57;8.57;;;3.80;;
43519;SDS011;46848;51.980;5.918;2023-08-20T05:38:24;8.90;;;3.38;;
43519;SDS011;46848;51.980;5.918;2023-08-20T05:40:50;6.80;;;3.67;;
43519;SDS011;46848;51.980;5.918;2023-08-20T05:43:15;7.45;;;3.95;;
43519;SDS011;46848;51.980;5.918;2023-08-20T05:45:41;6.82;;;3.60;;
43519;SDS011;46848;51.980;5.918;2023-08-20T05:48:07;7.88;;;3.60;;
43519;SDS011;46848;51.980;5.918;2023-08-20T05:50:32;9.23;;;4.00;;
43519;SDS011;46848;51.980;5.918;2023-08-20T05:52:58;11.40;;;4.28;;
43519;SDS011;46848;51.980;5.918;2023-08-20T05:55:24;10.85;;;4.57;;
43519;SDS011;46848;51.980;5.918;2023-08-20T05:57:49;12.35;;;4.60;;
43519;SDS011;46848;51.980;5.918;2023-08-20T06:00:15;9.95;;;4.13;;
43519;SDS011;46848;51.980;5.918;2023-08-20T06:02:42;9.05;;;3.80;;
43519;SDS011;46848;51.980;5.918;2023-08-20T06:05:08;10.15;;;3.72;;
43519;SDS011;46848;51.980;5.918;2023-08-20T06:07:34;9.68;;;4.32;;
43519;SDS011;46848;51.980;5.918;2023-08-20T06:10:00;10.70;;;4.57;;
43519;SDS011;46848;51.980;5.918;2023-08-20T06:12:26;10.50;;;3.95;;
43519;SDS011;46848;51.980;5.918;2023-08-20T06:14:51;6.90;;;3.90;;
43519;SDS011;46848;51.980;5.918;2023-08-20T06:17:17;10.80;;;3.83;;
43519;SDS011;46848;51.980;5.918;2023-08-20T06:19:43;9.10;;;3.53;;
43519;SDS011;46848;51.980;5.918;2023-08-20T06:22:09;8.82;;;3.63;;
43519;SDS011;46848;51.980;5.918;2023-08-20T06:24:35;8.40;;;3.65;;
43519;SDS011;46848;51.980;5.918;2023-08-20T06:27:01;8.65;;;3.55;;
43519;SDS011;46848;51.980;5.918;2023-08-20T06:29:26;8.45;;;3.33;;
43519;SDS011;46848;51.980;5.918;2023-08-20T06:31:52;7.70;;;3.30;;
43519;SDS011;46848;51.980;5.918;2023-08-20T06:34:18;6.82;;;2.60;;
43519;SDS011;46848;51.980;5.918;2023-08-20T06:36:43;6.57;;;2.83;;
43519;SDS011;46848;51.980;5.918;2023-08-20T06:39:09;10.00;;;2.95;;
43519;SDS011;46848;51.980;5.918;2023-08-20T06:41:35;7.72;;;2.97;;
43519;SDS011;46848;51.980;5.918;2023-08-20T06:44:01;7.53;;;3.03;;
43519;SDS011;46848;51.980;5.918;2023-08-20T06:46:27;6.88;;;2.70;;
43519;SDS011;46848;51.980;5.918;2023-08-20T06:48:53;10.30;;;2.70;;
43519;SDS011;46848;51.980;5.918;2023-08-20T06:51:21;9.43;;;2.47;;
43519;SDS011;46848;51.980;5.918;2023-08-20T06:53:47;7.18;;;2.72;;
43519;SDS011;46848;51.980;5.918;2023-08-20T06:56:13;6.75;;;2.20;;
43519;SDS011;46848;51.980;5.918;2023-08-20T06:58:40;10.07;;;2.30;;
43519;SDS011;46848;51.980;5.918;2023-08-20T07:01:06;9.75;;;2.50;;
43519;SDS011;46848;51.980;5.918;2023-08-20T07:03:33;9.27;;;2.60;;
43519;SDS011;46848;51.980;5.918;2023-08-20T07:06:02;4.43;;;1.80;;
43519;SDS011;46848;51.980;5.918;2023-08-20T07:08:28;6.05;;;2.20;;
43519;SDS011;46848;51.980;5.918;2023-08-20T07:10:54;6.70;;;1.83;;
43519;SDS011;46848;51.980;5.918;2023-08-20T07:13:19;9.77;;;2.15;;
43519;SDS011;46848;51.980;5.918;2023-08-20T07:15:45;6.35;;;2.47;;
43519;SDS011;46848;51.980;5.918;2023-08-20T07:18:10;9.13;;;2.30;;
43519;SDS011;46848;51.980;5.918;2023-08-20T07:20:38;6.03;;;2.40;;
43519;SDS011;46848;51.980;5.918;2023-08-20T07:23:04;8.07;;;2.35;;
43519;SDS011;46848;51.980;5.918;2023-08-20T07:25:30;7.75;;;2.25;;
43519;SDS011;46848;51.980;5.918;2023-08-20T07:27:55;8.27;;;2.00;;
43519;SDS011;46848;51.980;5.918;2023-08-20T07:30:24;7.32;;;1.98;;
43519;SDS011;46848;51.980;5.918;2023-08-20T07:32:50;7.07;;;2.25;;
43519;SDS011;46848;51.980;5.918;2023-08-20T07:35:16;5.20;;;1.80;;
43519;SDS011;46848;51.980;5.918;2023-08-20T07:37:42;8.05;;;1.98;;
43519;SDS011;46848;51.980;5.918;2023-08-20T07:40:07;8.05;;;2.10;;
43519;SDS011;46848;51.980;5.918;2023-08-20T07:42:36;8.70;;;2.55;;
43519;SDS011;46848;51.980;5.918;2023-08-20T07:45:01;8.90;;;2.15;;
43519;SDS011;46848;51.980;5.918;2023-08-20T07:47:27;6.22;;;2.05;;
43519;SDS011;46848;51.980;5.918;2023-08-20T07:49:54;5.68;;;2.20;;
43519;SDS011;46848;51.980;5.918;2023-08-20T07:52:20;6.15;;;2.05;;
43519;SDS011;46848;51.980;5.918;2023-08-20T07:54:45;6.28;;;1.88;;
43519;SDS011;46848;51.980;5.918;2023-08-20T07:57:11;4.38;;;1.50;;
43519;SDS011;46848;51.980;5.918;2023-08-20T07:59:37;7.30;;;1.67;;
43519;SDS011;46848;51.980;5.918;2023-08-20T08:02:03;5.25;;;1.83;;
43519;SDS011;46848;51.980;5.918;2023-08-20T08:04:29;7.07;;;1.98;;
43519;SDS011;46848;51.980;5.918;2023-08-20T08:06:55;6.30;;;1.85;;
43519;SDS011;46848;51.980;5.918;2023-08-20T08:09:21;5.28;;;1.48;;
43519;SDS011;46848;51.980;5.918;2023-08-20T08:14:17;8.40;;;2.28;;
43519;SDS011;46848;51.980;5.918;2023-08-20T08:16:44;5.53;;;1.83;;
43519;SDS011;46848;51.980;5.918;2023-08-20T08:19:10;5.90;;;1.30;;
43519;SDS011;46848;51.980;5.918;2023-08-20T08:21:36;6.60;;;1.40;;
43519;SDS011;46848;51.980;5.918;2023-08-20T08:24:02;6.18;;;1.42;;
43519;SDS011;46848;51.980;5.918;2023-08-20T08:26:28;6.65;;;1.42;;
43519;SDS011;46848;51.980;5.918;2023-08-20T08:28:54;8.07;;;1.33;;
43519;SDS011;46848;51.980;5.918;2023-08-20T08:31:19;4.63;;;1.50;;
43519;SDS011;46848;51.980;5.918;2023-08-20T08:33:45;3.90;;;1.20;;
43519;SDS011;46848;51.980;5.918;2023-08-20T08:36:10;5.05;;;1.33;;
43519;SDS011;46848;51.980;5.918;2023-08-20T08:38:36;4.45;;;1.08;;
43519;SDS011;46848;51.980;5.918;2023-08-20T08:41:03;5.88;;;1.73;;
43519;SDS011;46848;51.980;5.918;2023-08-20T08:43:34;4.78;;;1.05;;
43519;SDS011;46848;51.980;5.918;2023-08-20T08:46:02;3.97;;;1.20;;
43519;SDS011;46848;51.980;5.918;2023-08-20T08:48:36;4.65;;;1.20;;
43519;SDS011;46848;51.980;5.918;2023-08-20T08:51:04;4.75;;;1.25;;
43519;SDS011;46848;51.980;5.918;2023-08-20T08:53:30;4.40;;;1.65;;
43519;SDS011;46848;51.980;5.918;2023-08-20T08:55:58;4.93;;;1.20;;
43519;SDS011;46848;51.980;5.918;2023-08-20T08:58:24;4.10;;;1.15;;
43519;SDS011;46848;51.980;5.918;2023-08-20T09:00:49;5.72;;;1.55;;
43519;SDS011;46848;51.980;5.918;2023-08-20T09:03:15;3.38;;;0.90;;
43519;SDS011;46848;51.980;5.918;2023-08-20T09:05:47;3.20;;;0.90;;
43519;SDS011;46848;51.980;5.918;2023-08-20T09:08:26;5.53;;;1.25;;
43519;SDS011;46848;51.980;5.918;2023-08-20T09:10:53;3.05;;;1.15;;
43519;SDS011;46848;51.980;5.918;2023-08-20T09:13:24;2.95;;;0.93;;
43519;SDS011;46848;51.980;5.918;2023-08-20T09:16:11;2.90;;;0.88;;
43519;SDS011;46848;51.980;5.918;2023-08-20T09:18:37;3.33;;;0.90;;
43519;SDS011;46848;51.980;5.918;2023-08-20T09:21:09;3.20;;;0.75;;
43519;SDS011;46848;51.980;5.918;2023-08-20T09:23:36;3.58;;;1.05;;
43519;SDS011;46848;51.980;5.918;2023-08-20T09:26:03;5.40;;;0.95;;
43519;SDS011;46848;51.980;5.918;2023-08-20T09:28:30;2.83;;;0.77;;
43519;SDS011;46848;51.980;5.918;2023-08-20T09:31:12;4.60;;;1.13;;
43519;SDS011;46848;51.980;5.918;2023-08-20T09:33:51;4.75;;;1.10;;
43519;SDS011;46848;51.980;5.918;2023-08-20T09:36:18;4.13;;;1.13;;
43519;SDS011;46848;51.980;5.918;2023-08-20T09:38:44;4.65;;;0.80;;
43519;SDS011;46848;51.980;5.918;2023-08-20T09:41:09;2.15;;;1.00;;
43519;SDS011;46848;51.980;5.918;2023-08-20T09:43:38;2.47;;;0.70;;
43519;SDS011;46848;51.980;5.918;2023-08-20T09:46:05;2.28;;;0.90;;
43519;SDS011;46848;51.980;5.918;2023-08-20T09:48:35;2.10;;;0.75;;
43519;SDS011;46848;51.980;5.918;2023-08-20T09:51:11;2.35;;;0.60;;
43519;SDS011;46848;51.980;5.918;2023-08-20T09:53:43;3.22;;;0.73;;
43519;SDS011;46848;51.980;5.918;2023-08-20T09:56:36;3.65;;;0.73;;
43519;SDS011;46848;51.980;5.918;2023-08-20T09:59:03;2.15;;;0.68;;
43519;SDS011;46848;51.980;5.918;2023-08-20T10:01:29;3.00;;;0.80;;
43519;SDS011;46848;51.980;5.918;2023-08-20T10:03:55;4.35;;;0.82;;
43519;SDS011;46848;51.980;5.918;2023-08-20T10:06:22;2.78;;;0.80;;
43519;SDS011;46848;51.980;5.918;2023-08-20T10:08:49;4.43;;;1.05;;
43519;SDS011;46848;51.980;5.918;2023-08-20T10:11:16;3.35;;;0.95;;
43519;SDS011;46848;51.980;5.918;2023-08-20T10:13:42;3.75;;;1.00;;
43519;SDS011;46848;51.980;5.918;2023-08-20T10:16:08;4.90;;;1.00;;
43519;SDS011;46848;51.980;5.918;2023-08-20T10:18:36;2.60;;;0.82;;
43519;SDS011;46848;51.980;5.918;2023-08-20T10:21:02;4.00;;;0.90;;
43519;SDS011;46848;51.980;5.918;2023-08-20T10:23:30;5.38;;;1.00;;
43519;SDS011;46848;51.980;5.918;2023-08-20T10:26:06;4.53;;;1.15;;
43519;SDS011;46848;51.980;5.918;2023-08-20T10:28:34;2.15;;;0.70;;
43519;SDS011;46848;51.980;5.918;2023-08-20T10:31:03;2.63;;;0.77;;
43519;SDS011;46848;51.980;5.918;2023-08-20T10:33:37;2.30;;;0.82;;
43519;SDS011;46848;51.980;5.918;2023-08-20T10:36:08;3.10;;;1.08;;
43519;SDS011;46848;51.980;5.918;2023-08-20T10:38:41;2.60;;;0.90;;
43519;SDS011;46848;51.980;5.918;2023-08-20T10:41:07;2.50;;;0.52;;
43519;SDS011;46848;51.980;5.918;2023-08-20T10:48:29;1.80;;;0.40;;
43519;SDS011;46848;51.980;5.918;2023-08-20T10:50:56;2.08;;;0.50;;
43519;SDS011;46848;51.980;5.918;2023-08-20T10:53:22;2.38;;;0.45;;
43519;SDS011;46848;51.980;5.918;2023-08-20T10:55:48;2.28;;;0.65;;
43519;SDS011;46848;51.980;5.918;2023-08-20T10:58:14;2.75;;;0.80;;
43519;SDS011;46848;51.980;5.918;2023-08-20T11:00:41;2.97;;;0.95;;
43519;SDS011;46848;51.980;5.918;2023-08-20T11:03:07;1.80;;;0.60;;
43519;SDS011;46848;51.980;5.918;2023-08-20T11:05:33;3.95;;;0.60;;
43519;SDS011;46848;51.980;5.918;2023-08-20T11:07:59;3.03;;;0.80;;
43519;SDS011;46848;51.980;5.918;2023-08-20T11:10:25;3.08;;;0.70;;
43519;SDS011;46848;51.980;5.918;2023-08-20T11:12:51;4.25;;;0.82;;
43519;SDS011;46848;51.980;5.918;2023-08-20T11:15:17;2.03;;;0.60;;
43519;SDS011;46848;51.980;5.918;2023-08-20T11:17:44;2.50;;;0.70;;
43519;SDS011;46848;51.980;5.918;2023-08-20T11:20:10;2.42;;;0.63;;
43519;SDS011;46848;51.980;5.918;2023-08-20T11:22:39;3.00;;;0.85;;
43519;SDS011;46848;51.980;5.918;2023-08-20T11:25:05;3.17;;;0.82;;
43519;SDS011;46848;51.980;5.918;2023-08-20T11:27:35;3.67;;;0.80;;
43519;SDS011;46848;51.980;5.918;2023-08-20T11:30:03;3.05;;;0.80;;
43519;SDS011;46848;51.980;5.918;2023-08-20T11:32:30;2.28;;;0.60;;
43519;SDS011;46848;51.980;5.918;2023-08-20T11:34:56;3.05;;;0.82;;
43519;SDS011;46848;51.980;5.918;2023-08-20T11:37:22;3.92;;;0.90;;
43519;SDS011;46848;51.980;5.918;2023-08-20T11:39:48;2.03;;;0.82;;
43519;SDS011;46848;51.980;5.918;2023-08-20T11:42:14;3.13;;;0.70;;
43519;SDS011;46848;51.980;5.918;2023-08-20T11:44:45;2.95;;;0.70;;
43519;SDS011;46848;51.980;5.918;2023-08-20T11:47:18;4.60;;;0.85;;
43519;SDS011;46848;51.980;5.918;2023-08-20T11:49:44;4.03;;;0.82;;
43519;SDS011;46848;51.980;5.918;2023-08-20T11:52:10;3.88;;;0.98;;
43519;SDS011;46848;51.980;5.918;2023-08-20T11:54:38;2.35;;;0.68;;
43519;SDS011;46848;51.980;5.918;2023-08-20T11:57:04;3.10;;;0.88;;
43519;SDS011;46848;51.980;5.918;2023-08-20T11:59:31;2.78;;;0.77;;
43519;SDS011;46848;51.980;5.918;2023-08-20T12:01:57;3.03;;;0.68;;
43519;SDS011;46848;51.980;5.918;2023-08-20T12:04:28;2.72;;;0.75;;
43519;SDS011;46848;51.980;5.918;2023-08-20T12:09:39;3.88;;;0.88;;
43519;SDS011;46848;51.980;5.918;2023-08-20T12:12:06;3.33;;;0.77;;
43519;SDS011;46848;51.980;5.918;2023-08-20T12:14:32;2.40;;;0.70;;
43519;SDS011;46848;51.980;5.918;2023-08-20T12:16:58;3.17;;;0.95;;
43519;SDS011;46848;51.980;5.918;2023-08-20T12:19:24;1.67;;;0.43;;
43519;SDS011;46848;51.980;5.918;2023-08-20T12:21:50;1.80;;;0.70;;
43519;SDS011;46848;51.980;5.918;2023-08-20T12:24:15;2.50;;;0.55;;
43519;SDS011;46848;51.980;5.918;2023-08-20T12:26:41;2.75;;;0.55;;
43519;SDS011;46848;51.980;5.918;2023-08-20T12:29:08;3.22;;;0.80;;
43519;SDS011;46848;51.980;5.918;2023-08-20T12:31:34;1.92;;;0.60;;
43519;SDS011;46848;51.980;5.918;2023-08-20T12:34:01;2.15;;;0.73;;
43519;SDS011;46848;51.980;5.918;2023-08-20T12:36:27;1.98;;;0.57;;
43519;SDS011;46848;51.980;5.918;2023-08-20T12:38:53;3.40;;;0.77;;
43519;SDS011;46848;51.980;5.918;2023-08-20T12:41:19;4.03;;;0.73;;
43519;SDS011;46848;51.980;5.918;2023-08-20T12:43:45;2.38;;;0.70;;
43519;SDS011;46848;51.980;5.918;2023-08-20T12:46:11;2.40;;;0.80;;
43519;SDS011;46848;51.980;5.918;2023-08-20T12:48:37;2.05;;;0.60;;
43519;SDS011;46848;51.980;5.918;2023-08-20T12:51:03;3.10;;;0.70;;
43519;SDS011;46848;51.980;5.918;2023-08-20T12:53:29;4.45;;;0.68;;
43519;SDS011;46848;51.980;5.918;2023-08-20T12:55:54;4.90;;;1.08;;
43519;SDS011;46848;51.980;5.918;2023-08-20T12:58:20;3.85;;;0.70;;
43519;SDS011;46848;51.980;5.918;2023-08-20T13:00:45;2.75;;;0.60;;
43519;SDS011;46848;51.980;5.918;2023-08-20T13:03:11;3.03;;;0.90;;
43519;SDS011;46848;51.980;5.918;2023-08-20T13:05:37;1.88;;;0.55;;
43519;SDS011;46848;51.980;5.918;2023-08-20T13:08:03;4.57;;;0.90;;
43519;SDS011;46848;51.980;5.918;2023-08-20T13:10:29;2.40;;;0.80;;
43519;SDS011;46848;51.980;5.918;2023-08-20T13:12:55;3.10;;;0.60;;
43519;SDS011;46848;51.980;5.918;2023-08-20T13:15:25;4.00;;;0.93;;
43519;SDS011;46848;51.980;5.918;2023-08-20T13:17:51;3.20;;;0.80;;
43519;SDS011;46848;51.980;5.918;2023-08-20T13:20:17;2.35;;;0.60;;
43519;SDS011;46848;51.980;5.918;2023-08-20T13:22:47;3.92;;;0.80;;
43519;SDS011;46848;51.980;5.918;2023-08-20T13:25:13;2.63;;;0.80;;
43519;SDS011;46848;51.980;5.918;2023-08-20T13:27:39;3.00;;;0.90;;
43519;SDS011;46848;51.980;5.918;2023-08-20T13:30:06;2.72;;;0.70;;
43519;SDS011;46848;51.980;5.918;2023-08-20T13:32:33;2.97;;;0.80;;
43519;SDS011;46848;51.980;5.918;2023-08-20T13:34:59;4.43;;;1.00;;
43519;SDS011;46848;51.980;5.918;2023-08-20T13:37:25;4.32;;;1.00;;
43519;SDS011;46848;51.980;5.918;2023-08-20T13:39:50;5.05;;;1.10;;
43519;SDS011;46848;51.980;5.918;2023-08-20T13:42:16;3.55;;;0.80;;
43519;SDS011;46848;51.980;5.918;2023-08-20T13:44:42;2.38;;;0.75;;
43519;SDS011;46848;51.980;5.918;2023-08-20T13:47:08;5.45;;;1.10;;
43519;SDS011;46848;51.980;5.918;2023-08-20T13:49:34;3.30;;;1.20;;
43519;SDS011;46848;51.980;5.918;2023-08-20T13:51:59;3.88;;;1.33;;
43519;SDS011;46848;51.980;5.918;2023-08-20T13:54:25;2.53;;;0.80;;
43519;SDS011;46848;51.980;5.918;2023-08-20T13:56:51;3.78;;;1.30;;
43519;SDS011;46848;51.980;5.918;2023-08-20T13:59:16;4.05;;;1.50;;
43519;SDS011;46848;51.980;5.918;2023-08-20T14:01:42;2.47;;;1.15;;
43519;SDS011;46848;51.980;5.918;2023-08-20T14:04:07;4.20;;;1.38;;
43519;SDS011;46848;51.980;5.918;2023-08-20T14:06:33;5.20;;;1.20;;
43519;SDS011;46848;51.980;5.918;2023-08-20T14:08:59;2.65;;;1.15;;
43519;SDS011;46848;51.980;5.918;2023-08-20T14:11:24;3.50;;;1.00;;
43519;SDS011;46848;51.980;5.918;2023-08-20T14:13:50;3.40;;;1.10;;
43519;SDS011;46848;51.980;5.918;2023-08-20T14:16:16;3.33;;;0.80;;
43519;SDS011;46848;51.980;5.918;2023-08-20T14:18:42;4.18;;;1.50;;
43519;SDS011;46848;51.980;5.918;2023-08-20T14:21:07;3.72;;;1.23;;
43519;SDS011;46848;51.980;5.918;2023-08-20T14:23:33;4.25;;;1.20;;
43519;SDS011;46848;51.980;5.918;2023-08-20T14:26:00;3.50;;;1.20;;
43519;SDS011;46848;51.980;5.918;2023-08-20T14:28:25;4.78;;;1.48;;
43519;SDS011;46848;51.980;5.918;2023-08-20T14:30:51;3.85;;;1.10;;
43519;SDS011;46848;51.980;5.918;2023-08-20T14:33:19;2.75;;;0.80;;
43519;SDS011;46848;51.980;5.918;2023-08-20T14:35:44;3.80;;;1.02;;
43519;SDS011;46848;51.980;5.918;2023-08-20T14:38:10;3.75;;;1.05;;
43519;SDS011;46848;51.980;5.918;2023-08-20T14:40:40;5.57;;;1.23;;
43519;SDS011;46848;51.980;5.918;2023-08-20T14:43:06;4.10;;;1.08;;
43519;SDS011;46848;51.980;5.918;2023-08-20T14:45:32;2.38;;;0.82;;
43519;SDS011;46848;51.980;5.918;2023-08-20T14:47:58;4.72;;;1.00;;
43519;SDS011;46848;51.980;5.918;2023-08-20T14:50:24;3.70;;;1.00;;
43519;SDS011;46848;51.980;5.918;2023-08-20T14:52:49;3.13;;;0.75;;
43519;SDS011;46848;51.980;5.918;2023-08-20T14:55:20;2.65;;;0.80;;
43519;SDS011;46848;51.980;5.918;2023-08-20T14:57:46;4.47;;;0.88;;
43519;SDS011;46848;51.980;5.918;2023-08-20T15:00:12;2.97;;;0.88;;
43519;SDS011;46848;51.980;5.918;2023-08-20T15:02:42;2.92;;;0.82;;